Terminal Aerodrome Forecast
Issued by NWS Wilmington, OH

Current Version | Previous Version | Text Only | Print | Product List | Glossary Off
Versions: 1 2 3 4 5 6 7 8 9 10 11 12 13 14 15 16 17 18

000
FTUS41 KILN 181700
TAFCMH
TAF
KCMH 181732Z 1818/1918 06006KT P6SM VCSH SCT040 BKN080
     FM190100 VRB03KT P6SM SCT040
     FM191300 20005KT P6SM BKN250=

USA.gov is the U.S. government's official web portal to all federal, state and local government web resources and services.